Time;durP1;ratioP1;P1;durP2;ratioP2;P2;SDS_P1;SDS_P2;PMS_P1;PMS_P2;Temp;Humidity;BMP_temperature;BMP_pressure;BME280_temperature;BME280_humidity;BME280_pressure;Samples;Min_cycle;Max_cycle;Signal;HPM_P1;HPM_P2
2022/05/27 00:01:15;;;;;;;;;;;;;;;;;;5077526;28;20317;-41
2022/05/27 00:03:41;;;;;;;;;;;;;;;;;;5077076;28;19952;-42
2022/05/27 00:06:09;;;;;;;;;;;;;;;;;;5077023;28;20297;-42
2022/05/27 00:08:35;;;;;;;;;;;;;;;;;;5076994;28;20386;-42
2022/05/27 00:11:00;;;;;;;;;;;;;;;;;;5076972;28;19935;-43
2022/05/27 00:13:26;;;;;;;;;;;;;;;;;;5076823;28;19912;-42
2022/05/27 00:15:54;;;;;;;;;;;;;;;;;;5077041;28;20028;-44
2022/05/27 00:18:20;;;;;;;;;;;;;;;;;;5076710;28;19958;-42
2022/05/27 00:20:48;;;;;;;;;;;;;;;;;;5076948;28;19915;-42
2022/05/27 00:23:14;;;;;;;;;;;;;;;;;;5076582;28;20038;-43
2022/05/27 00:25:41;;;;;;;;;;;;;;;;;;5076427;28;19908;-42
2022/05/27 00:28:06;;;;;;;;;;;;;;;;;;5076420;28;20395;-42
2022/05/27 00:30:34;;;;;;;;;;;;;;;;;;5077180;28;19913;-42
2022/05/27 00:32:59;;;;;;;;;;;;;;;;;;5076873;28;19912;-43
2022/05/27 00:35:24;;;;;;;;;;;;;;;;;;5076903;28;19915;-42
2022/05/27 00:37:50;;;;;;;;;;;;;;;;;;5076624;28;19912;-42
2022/05/27 00:40:15;;;;;;;;;;;;;;;;;;5076896;28;20434;-42
2022/05/27 00:42:40;;;;;;;;;;;;;;;;;;5076564;28;19991;-42
2022/05/27 00:45:05;;;;;;;;;;;;;;;;;;5076784;28;20002;-42
2022/05/27 00:47:31;;;;;;;;;;;;;;;;;;5076379;28;19995;-42
2022/05/27 00:49:59;;;;;;;;;;;;;;;;;;5077013;28;19909;-42
2022/05/27 00:52:24;;;;;;;;;;;;;;;;;;5076440;28;19915;-42
2022/05/27 00:54:49;;;;;;;;;;;;;;;;;;5076268;28;19913;-41
2022/05/27 00:57:15;;;;;;;;;;;;;;;;;;5076023;28;19908;-42
2022/05/27 00:59:40;;;;;;;;;;;;;;;;;;5076476;28;19908;-41
2022/05/27 01:02:09;;;;;;;;;;;;;;;;;;5076108;28;19912;-42
2022/05/27 01:04:34;;;;;;;;;;;;;;;;;;5076440;28;20252;-42
2022/05/27 01:07:00;;;;;;;;;;;;;;;;;;5075853;28;19954;-42
2022/05/27 01:09:25;;;;;;;;;;;;;;;;;;5076118;28;19909;-42
2022/05/27 01:11:50;;;;;;;;;;;;;;;;;;5075897;28;20421;-41
2022/05/27 01:14:15;;;;;;;;;;;;;;;;;;5075987;28;19912;-43
2022/05/27 01:16:40;;;;;;;;;;;;;;;;;;5075765;28;19913;-42
2022/05/27 01:21:49;;;;;;;;;;;;;;;;;;5075601;28;19918;-42
2022/05/27 01:24:14;;;;;;;;;;;;;;;;;;5075499;28;20325;-41
2022/05/27 01:26:41;;;;;;;;;;;;;;;;;;5075700;28;19977;-42
2022/05/27 01:29:09;;;;;;;;;;;;;;;;;;5082705;22;19925;-42
2022/05/27 01:31:34;;;;;;;;;;;;;;;;;;5075651;28;19919;-42
2022/05/27 01:34:01;;;;;;;;;;;;;;;;;;5075730;28;19912;-42
2022/05/27 01:36:29;;;;;;;;;;;;;;;;;;5075643;28;19951;-42
2022/05/27 01:38:54;;;;;;;;;;;;;;;;;;5075466;28;19951;-42
2022/05/27 01:41:20;;;;;;;;;;;;;;;;;;5075971;28;19916;-42
2022/05/27 01:43:50;;;;;;;;;;;;;;;;;;5075467;28;19909;-42
2022/05/27 01:46:19;;;;;;;;;;;;;;;;;;5075448;28;20415;-43
2022/05/27 01:48:44;;;;;;;;;;;;;;;;;;5075324;28;19908;-41
2022/05/27 01:51:09;;;;;;;;;;;;;;;;;;5075057;28;19918;-42
2022/05/27 01:53:35;;;;;;;;;;;;;;;;;;5081111;28;19919;-42
2022/05/27 01:56:00;;;;;;;;;;;;;;;;;;5094887;28;19912;-42
2022/05/27 01:58:26;;;;;;;;;;;;;;;;;;5094781;28;19908;-43
2022/05/27 02:00:54;;;;;;;;;;;;;;;;;;5094881;28;20321;-42
2022/05/27 02:03:20;;;;;;;;;;;;;;;;;;5094968;28;19912;-43
2022/05/27 02:05:46;;;;;;;;;;;;;;;;;;5094716;28;19908;-42
2022/05/27 02:08:13;;;;;;;;;;;;;;;;;;5094740;28;20386;-42
2022/05/27 02:10:39;;;;;;;;;;;;;;;;;;5097809;28;19916;-43
2022/05/27 02:13:06;;;;;;;;;;;;;;;;;;5098840;28;19914;-44
2022/05/27 02:15:31;;;;;;;;;;;;;;;;;;5098837;28;20355;-43
2022/05/27 02:17:56;;;;;;;;;;;;;;;;;;5098778;28;19908;-43
2022/05/27 02:20:22;;;;;;;;;;;;;;;;;;5098834;28;19950;-43
2022/05/27 02:22:47;;;;;;;;;;;;;;;;;;5098565;28;19908;-45
2022/05/27 02:25:15;;;;;;;;;;;;;;;;;;5098314;28;19919;-43
2022/05/27 02:27:40;;;;;;;;;;;;;;;;;;5098473;28;19960;-43
2022/05/27 02:30:05;;;;;;;;;;;;;;;;;;5098438;28;20386;-43
2022/05/27 02:32:30;;;;;;;;;;;;;;;;;;5098473;28;20340;-43
2022/05/27 02:35:08;;;;;;;;;;;;;;;;;;5098463;28;19908;-43
2022/05/27 02:37:35;;;;;;;;;;;;;;;;;;5098417;28;19920;-44
2022/05/27 02:40:01;;;;;;;;;;;;;;;;;;5098332;28;19908;-44
2022/05/27 02:42:26;;;;;;;;;;;;;;;;;;5098096;28;19912;-45
2022/05/27 02:44:51;;;;;;;;;;;;;;;;;;5098107;28;19904;-44
2022/05/27 02:47:17;;;;;;;;;;;;;;;;;;5098097;28;19908;-44
2022/05/27 02:49:44;;;;;;;;;;;;;;;;;;5098018;28;19908;-44
2022/05/27 02:52:09;;;;;;;;;;;;;;;;;;5098082;28;19946;-46
2022/05/27 02:54:36;;;;;;;;;;;;;;;;;;5097580;28;20014;-46
2022/05/27 02:57:01;;;;;;;;;;;;;;;;;;5086331;28;19916;-46
2022/05/27 02:59:26;;;;;;;;;;;;;;;;;;5077353;28;19908;-44
2022/05/27 03:01:51;;;;;;;;;;;;;;;;;;5077462;28;19912;-45
2022/05/27 03:04:16;;;;;;;;;;;;;;;;;;5077466;28;19908;-44
2022/05/27 03:06:42;;;;;;;;;;;;;;;;;;5077527;28;19909;-46
2022/05/27 03:09:07;;;;;;;;;;;;;;;;;;5077366;28;20329;-46
2022/05/27 03:11:32;;;;;;;;;;;;;;;;;;5077336;28;19913;-44
2022/05/27 03:13:58;;;;;;;;;;;;;;;;;;5077370;28;19951;-45
2022/05/27 03:16:23;;;;;;;;;;;;;;;;;;5077247;28;20012;-45
2022/05/27 03:18:50;;;;;;;;;;;;;;;;;;5077203;28;19993;-44
2022/05/27 03:21:15;;;;;;;;;;;;;;;;;;5077373;28;19912;-44
2022/05/27 03:23:41;;;;;;;;;;;;;;;;;;5086154;28;19961;-45
2022/05/27 03:26:09;;;;;;;;;;;;;;;;;;5097093;28;19919;-44
2022/05/27 03:28:34;;;;;;;;;;;;;;;;;;5097252;28;20286;-44
2022/05/27 03:31:00;;;;;;;;;;;;;;;;;;5097145;28;19916;-44
2022/05/27 03:33:25;;;;;;;;;;;;;;;;;;5097216;28;20424;-44
2022/05/27 03:35:50;;;;;;;;;;;;;;;;;;5097169;28;19915;-44
2022/05/27 03:38:15;;;;;;;;;;;;;;;;;;5097235;28;19912;-45
2022/05/27 03:40:41;;;;;;;;;;;;;;;;;;5083274;28;19930;-44
2022/05/27 03:43:09;;;;;;;;;;;;;;;;;;5076988;28;19919;-43
2022/05/27 03:45:36;;;;;;;;;;;;;;;;;;5076930;28;20370;-45
2022/05/27 03:48:04;;;;;;;;;;;;;;;;;;5076705;28;19908;-45
2022/05/27 03:50:29;;;;;;;;;;;;;;;;;;5076712;28;19912;-44
2022/05/27 03:52:55;;;;;;;;;;;;;;;;;;5076860;28;20042;-44
2022/05/27 03:55:21;;;;;;;;;;;;;;;;;;5076750;28;19912;-44
2022/05/27 03:57:46;;;;;;;;;;;;;;;;;;5076520;28;19930;-45
2022/05/27 04:00:11;;;;;;;;;;;;;;;;;;5076514;28;19908;-45
2022/05/27 04:02:37;;;;;;;;;;;;;;;;;;5076621;28;20024;-44
2022/05/27 04:05:02;;;;;;;;;;;;;;;;;;5076349;28;20318;-44
2022/05/27 04:07:27;;;;;;;;;;;;;;;;;;5076387;28;19909;-43
2022/05/27 04:09:52;;;;;;;;;;;;;;;;;;5076096;28;20360;-44
2022/05/27 04:12:19;;;;;;;;;;;;;;;;;;5076300;28;20287;-44
2022/05/27 04:14:46;;;;;;;;;;;;;;;;;;5076175;28;20451;-44
2022/05/27 04:19:55;;;;;;;;;;;;;;;;;;5076225;28;20275;-44
2022/05/27 04:22:23;;;;;;;;;;;;;;;;;;5076179;28;19909;-44
2022/05/27 04:24:49;;;;;;;;;;;;;;;;;;5075768;28;19948;-44
2022/05/27 04:27:14;;;;;;;;;;;;;;;;;;5075813;28;19912;-44
2022/05/27 04:29:39;;;;;;;;;;;;;;;;;;5075930;28;19908;-45
2022/05/27 04:32:05;;;;;;;;;;;;;;;;;;5075756;28;19920;-43
2022/05/27 04:34:30;;;;;;;;;;;;;;;;;;5075879;28;19908;-43
2022/05/27 04:36:57;;;;;;;;;;;;;;;;;;5075862;28;19909;-44
2022/05/27 04:39:23;;;;;;;;;;;;;;;;;;5075809;28;20345;-44
2022/05/27 04:41:48;;;;;;;;;;;;;;;;;;5075721;28;19909;-43
2022/05/27 04:44:13;;;;;;;;;;;;;;;;;;5075638;28;19909;-43
2022/05/27 04:46:39;;;;;;;;;;;;;;;;;;5075679;28;19961;-42
2022/05/27 04:49:04;;;;;;;;;;;;;;;;;;5075537;28;19912;-43
2022/05/27 04:51:31;;;;;;;;;;;;;;;;;;5075244;28;20000;-43
2022/05/27 04:53:56;;;;;;;;;;;;;;;;;;5075291;28;19998;-43
2022/05/27 04:56:24;;;;;;;;;;;;;;;;;;5075472;28;19913;-43
2022/05/27 04:58:49;;;;;;;;;;;;;;;;;;5074140;28;20344;-43
2022/05/27 05:01:14;;;;;;;;;;;;;;;;;;5075235;28;20013;-44
2022/05/27 05:03:39;;;;;;;;;;;;;;;;;;5075411;28;19939;-43
2022/05/27 05:06:05;;;;;;;;;;;;;;;;;;5075158;28;19951;-43
2022/05/27 05:08:33;;;;;;;;;;;;;;;;;;5075305;28;19952;-43
2022/05/27 05:10:59;;;;;;;;;;;;;;;;;;5075174;28;20268;-44
2022/05/27 05:13:24;;;;;;;;;;;;;;;;;;5075241;28;19909;-43
2022/05/27 05:15:49;;;;;;;;;;;;;;;;;;5075248;28;19913;-43
2022/05/27 05:18:14;;;;;;;;;;;;;;;;;;5075054;28;19915;-43
2022/05/27 05:20:41;;;;;;;;;;;;;;;;;;5074974;28;19916;-43
2022/05/27 05:23:06;;;;;;;;;;;;;;;;;;5075239;28;19915;-44
2022/05/27 05:25:35;;;;;;;;;;;;;;;;;;5075364;28;20007;-43
2022/05/27 05:28:01;;;;;;;;;;;;;;;;;;5075026;28;19927;-43
2022/05/27 05:30:26;;;;;;;;;;;;;;;;;;5074957;28;20372;-43
2022/05/27 05:32:54;;;;;;;;;;;;;;;;;;5074988;28;19951;-43
2022/05/27 05:35:19;;;;;;;;;;;;;;;;;;5075024;28;19909;-43
2022/05/27 05:37:45;;;;;;;;;;;;;;;;;;5075043;28;19908;-43
2022/05/27 05:40:10;;;;;;;;;;;;;;;;;;5075040;28;19905;-44
2022/05/27 05:42:38;;;;;;;;;;;;;;;;;;5074980;28;19915;-44
2022/05/27 05:45:04;;;;;;;;;;;;;;;;;;5074106;28;20402;-44
2022/05/27 05:47:31;;;;;;;;;;;;;;;;;;5074918;28;20364;-43
2022/05/27 05:49:58;;;;;;;;;;;;;;;;;;5074821;28;20345;-43
2022/05/27 05:52:23;;;;;;;;;;;;;;;;;;5074564;28;20011;-43
2022/05/27 05:54:49;;;;;;;;;;;;;;;;;;5074610;28;19951;-43
2022/05/27 05:57:16;;;;;;;;;;;;;;;;;;5074937;28;19909;-44
2022/05/27 05:59:42;;;;;;;;;;;;;;;;;;5073375;28;19908;-43
2022/05/27 06:02:08;;;;;;;;;;;;;;;;;;5074688;28;19992;-44
2022/05/27 06:04:34;;;;;;;;;;;;;;;;;;5074850;28;19915;-43
2022/05/27 06:07:00;;;;;;;;;;;;;;;;;;5074665;28;19909;-43
2022/05/27 06:09:28;;;;;;;;;;;;;;;;;;5074794;28;19908;-44
2022/05/27 06:11:56;;;;;;;;;;;;;;;;;;5074912;28;19963;-43
2022/05/27 06:14:21;;;;;;;;;;;;;;;;;;5074646;28;19956;-43
2022/05/27 06:16:46;;;;;;;;;;;;;;;;;;5074777;28;19915;-43
2022/05/27 06:19:12;;;;;;;;;;;;;;;;;;5074187;28;20384;-44
2022/05/27 06:21:37;;;;;;;;;;;;;;;;;;5074530;28;20267;-43
2022/05/27 06:24:03;;;;;;;;;;;;;;;;;;5074308;28;19966;-43
2022/05/27 06:26:28;;;;;;;;;;;;;;;;;;5073177;28;19919;-44
2022/05/27 06:34:25;;;;;;;;;;;;;;;;;;5074937;28;20412;-43
2022/05/27 06:36:50;;;;;;;;;;;;;;;;;;5074497;28;20333;-43
2022/05/27 06:39:18;;;;;;;;;;;;;;;;;;5074445;28;19919;-43
2022/05/27 06:41:45;;;;;;;;;;;;;;;;;;5074508;28;19916;-44
2022/05/27 06:44:13;;;;;;;;;;;;;;;;;;5074268;28;19951;-44
2022/05/27 06:46:38;;;;;;;;;;;;;;;;;;5074514;28;19908;-46
2022/05/27 06:49:05;;;;;;;;;;;;;;;;;;5078551;28;19912;-43
2022/05/27 06:51:31;;;;;;;;;;;;;;;;;;5094537;28;19912;-44
2022/05/27 06:53:58;;;;;;;;;;;;;;;;;;5093239;28;19908;-43
2022/05/27 06:56:23;;;;;;;;;;;;;;;;;;5096839;28;19969;-44
2022/05/27 06:58:48;;;;;;;;;;;;;;;;;;5098030;28;19987;-44
2022/05/27 07:01:16;;;;;;;;;;;;;;;;;;5097959;28;19994;-43
2022/05/27 07:03:41;;;;;;;;;;;;;;;;;;5098077;28;19908;-44
2022/05/27 07:06:08;;;;;;;;;;;;;;;;;;5097884;28;19908;-44
2022/05/27 07:08:33;;;;;;;;;;;;;;;;;;5097953;28;19922;-44
2022/05/27 07:10:58;;;;;;;;;;;;;;;;;;5097831;28;20339;-44
2022/05/27 07:13:23;;;;;;;;;;;;;;;;;;5097888;28;20011;-44
2022/05/27 07:15:51;;;;;;;;;;;;;;;;;;5097717;28;19984;-44
2022/05/27 07:18:18;;;;;;;;;;;;;;;;;;5097836;28;20259;-43
2022/05/27 07:20:46;;;;;;;;;;;;;;;;;;5077578;28;19960;-43
2022/05/27 07:23:11;;;;;;;;;;;;;;;;;;5077628;28;19915;-43
2022/05/27 07:25:36;;;;;;;;;;;;;;;;;;5077580;28;19995;-44
2022/05/27 07:28:04;;;;;;;;;;;;;;;;;;5077083;28;19916;-44
2022/05/27 07:30:29;;;;;;;;;;;;;;;;;;5077327;28;20283;-44
2022/05/27 07:32:57;;;;;;;;;;;;;;;;;;5077127;28;19909;-43
2022/05/27 07:35:22;;;;;;;;;;;;;;;;;;5077345;28;19912;-44
2022/05/27 07:37:48;;;;;;;;;;;;;;;;;;5077297;28;19915;-44
2022/05/27 07:40:13;;;;;;;;;;;;;;;;;;5077097;28;19966;-45
2022/05/27 07:42:38;;;;;;;;;;;;;;;;;;5077021;28;19912;-44
2022/05/27 07:45:03;;;;;;;;;;;;;;;;;;5076957;28;19908;-43
2022/05/27 07:47:30;;;;;;;;;;;;;;;;;;5076903;28;19915;-45
2022/05/27 07:49:55;;;;;;;;;;;;;;;;;;5076096;28;19920;-44
2022/05/27 07:52:20;;;;;;;;;;;;;;;;;;5076812;28;19912;-44
2022/05/27 07:54:45;;;;;;;;;;;;;;;;;;5076803;28;20334;-43
2022/05/27 07:57:25;;;;;;;;;;;;;;;;;;5076742;28;19967;-44
2022/05/27 07:59:52;;;;;;;;;;;;;;;;;;5076714;28;19908;-44
2022/05/27 08:02:17;;;;;;;;;;;;;;;;;;5076811;28;19962;-43
2022/05/27 08:04:45;;;;;;;;;;;;;;;;;;5076617;28;19913;-44
2022/05/27 08:07:10;;;;;;;;;;;;;;;;;;5075581;28;20378;-43
2022/05/27 08:09:37;;;;;;;;;;;;;;;;;;5076634;28;19944;-43
2022/05/27 08:12:06;;;;;;;;;;;;;;;;;;5076321;28;19985;-44
2022/05/27 08:14:31;;;;;;;;;;;;;;;;;;5076517;28;19908;-44
2022/05/27 08:16:56;;;;;;;;;;;;;;;;;;5076346;28;19908;-44
2022/05/27 08:19:21;;;;;;;;;;;;;;;;;;5076219;28;20002;-43
2022/05/27 08:21:46;;;;;;;;;;;;;;;;;;5076332;28;19908;-44
2022/05/27 08:24:12;;;;;;;;;;;;;;;;;;5075889;28;19966;-44
2022/05/27 08:26:37;;;;;;;;;;;;;;;;;;5076265;28;20332;-43
2022/05/27 08:29:06;;;;;;;;;;;;;;;;;;5076078;28;20383;-44
2022/05/27 08:31:32;;;;;;;;;;;;;;;;;;5076061;28;20374;-43
2022/05/27 08:39:25;;;;;;;;;;;;;;;;;;5076023;28;19954;-44
2022/05/27 08:41:53;;;;;;;;;;;;;;;;;;5076058;28;19908;-43
2022/05/27 08:44:21;;;;;;;;;;;;;;;;;;5076181;28;19919;-43
2022/05/27 08:46:46;;;;;;;;;;;;;;;;;;5075967;28;19915;-43
2022/05/27 08:49:11;;;;;;;;;;;;;;;;;;5075588;28;19952;-43
2022/05/27 08:51:37;;;;;;;;;;;;;;;;;;5075885;28;19966;-43
2022/05/27 08:54:03;;;;;;;;;;;;;;;;;;5075662;28;19982;-43
2022/05/27 09:01:57;;;;;;;;;;;;;;;;;;5095925;28;19931;-43
2022/05/27 09:04:22;;;;;;;;;;;;;;;;;;5096318;28;19912;-44
2022/05/27 09:06:47;;;;;;;;;;;;;;;;;;5095732;28;20484;-43
2022/05/27 09:09:12;;;;;;;;;;;;;;;;;;5095624;28;20395;-43
2022/05/27 09:11:38;;;;;;;;;;;;;;;;;;5095846;28;20010;-43
2022/05/27 09:14:07;;;;;;;;;;;;;;;;;;5095465;28;19915;-44
2022/05/27 09:16:35;;;;;;;;;;;;;;;;;;5095520;28;19962;-43
2022/05/27 09:19:02;;;;;;;;;;;;;;;;;;5095317;28;19954;-43
2022/05/27 09:21:28;;;;;;;;;;;;;;;;;;5095224;28;19908;-45
2022/05/27 09:23:56;;;;;;;;;;;;;;;;;;5095446;28;19908;-45
2022/05/27 09:26:21;;;;;;;;;;;;;;;;;;5095369;28;19908;-44
2022/05/27 09:28:47;;;;;;;;;;;;;;;;;;5094753;28;20361;-44
2022/05/27 09:31:12;;;;;;;;;;;;;;;;;;5095334;28;19938;-44
2022/05/27 09:33:37;;;;;;;;;;;;;;;;;;5095070;28;19908;-44
2022/05/27 09:36:04;;;;;;;;;;;;;;;;;;5081604;28;19924;-46
2022/05/27 09:38:30;;;;;;;;;;;;;;;;;;5074899;28;19935;-46
2022/05/27 09:40:55;;;;;;;;;;;;;;;;;;5074737;28;19915;-44
2022/05/27 09:43:21;;;;;;;;;;;;;;;;;;5074360;28;20363;-44
2022/05/27 09:45:47;;;;;;;;;;;;;;;;;;5074657;28;19909;-44
2022/05/27 09:48:13;;;;;;;;;;;;;;;;;;5074509;28;19916;-44
2022/05/27 09:50:39;;;;;;;;;;;;;;;;;;5074518;28;19960;-45
2022/05/27 09:53:06;;;;;;;;;;;;;;;;;;5074624;28;20019;-44
2022/05/27 09:55:32;;;;;;;;;;;;;;;;;;5074674;28;20441;-44
2022/05/27 09:57:57;;;;;;;;;;;;;;;;;;5074631;28;19909;-45
2022/05/27 10:00:22;;;;;;;;;;;;;;;;;;5074499;28;19905;-44
2022/05/27 10:02:49;;;;;;;;;;;;;;;;;;5074546;28;20006;-44
2022/05/27 10:05:14;;;;;;;;;;;;;;;;;;5074390;28;19930;-44
2022/05/27 10:07:46;;;;;;;;;;;;;;;;;;5074498;28;20003;-44
2022/05/27 10:10:11;;;;;;;;;;;;;;;;;;5074481;28;19995;-44
2022/05/27 10:12:40;;;;;;;;;;;;;;;;;;5074755;28;19972;-44
2022/05/27 10:15:08;;;;;;;;;;;;;;;;;;5074149;28;19920;-45
2022/05/27 10:17:36;;;;;;;;;;;;;;;;;;5074553;28;19908;-45
2022/05/27 10:20:01;;;;;;;;;;;;;;;;;;5074355;28;19916;-44
2022/05/27 10:22:26;;;;;;;;;;;;;;;;;;5074413;28;19909;-44
2022/05/27 10:24:51;;;;;;;;;;;;;;;;;;5074042;28;20001;-44
2022/05/27 10:27:17;;;;;;;;;;;;;;;;;;5074380;28;19989;-44
2022/05/27 10:29:43;;;;;;;;;;;;;;;;;;5074148;28;20405;-44
2022/05/27 10:32:09;;;;;;;;;;;;;;;;;;5078227;28;19912;-44
2022/05/27 10:34:34;;;;;;;;;;;;;;;;;;5078253;28;19909;-44
2022/05/27 10:37:00;;;;;;;;;;;;;;;;;;5078544;28;20454;-43
2022/05/27 10:39:25;;;;;;;;;;;;;;;;;;5077043;28;19909;-45
2022/05/27 10:41:51;;;;;;;;;;;;;;;;;;5078221;28;20306;-43
2022/05/27 10:44:16;;;;;;;;;;;;;;;;;;5078278;28;19931;-44
2022/05/27 10:46:41;;;;;;;;;;;;;;;;;;5078096;28;20014;-44
2022/05/27 10:49:06;;;;;;;;;;;;;;;;;;5078105;28;19966;-44
2022/05/27 10:51:35;;;;;;;;;;;;;;;;;;5077956;28;20240;-44
2022/05/27 10:54:01;;;;;;;;;;;;;;;;;;5077771;28;19965;-45
2022/05/27 10:56:26;;;;;;;;;;;;;;;;;;5078264;28;19915;-45
2022/05/27 11:04:30;;;;;;;;;;;;;;;;;;5035613;28;19917;-44
2022/05/27 11:06:55;;;;;;;;;;;;;;;;;;5035735;28;19916;-44
2022/05/27 11:09:21;;;;;;;;;;;;;;;;;;5068549;28;19936;-44
2022/05/27 11:11:46;;;;;;;;;;;;;;;;;;5077409;28;20406;-44
2022/05/27 11:16:55;;;;;;;;;;;;;;;;;;5077683;28;19996;-44
2022/05/27 11:19:20;;;;;;;;;;;;;;;;;;5077760;28;19940;-44
2022/05/27 11:21:47;;;;;;;;;;;;;;;;;;5077278;28;19908;-44
2022/05/27 11:24:15;;;;;;;;;;;;;;;;;;5077071;28;20283;-44
2022/05/27 11:26:40;;;;;;;;;;;;;;;;;;5077145;28;20263;-44
2022/05/27 11:29:06;;;;;;;;;;;;;;;;;;5077004;28;19950;-44
2022/05/27 11:31:35;;;;;;;;;;;;;;;;;;5077003;28;20282;-43
2022/05/27 11:34:00;;;;;;;;;;;;;;;;;;5076946;28;19908;-45
2022/05/27 11:36:27;;;;;;;;;;;;;;;;;;5077023;28;19908;-44
2022/05/27 11:38:55;;;;;;;;;;;;;;;;;;5076823;28;19909;-44
2022/05/27 11:41:20;;;;;;;;;;;;;;;;;;5076429;28;19908;-44
2022/05/27 11:43:46;;;;;;;;;;;;;;;;;;5076286;28;20287;-44
2022/05/27 11:46:11;;;;;;;;;;;;;;;;;;5077007;28;19916;-44
2022/05/27 11:48:39;;;;;;;;;;;;;;;;;;5076926;28;20481;-44
2022/05/27 11:51:07;;;;;;;;;;;;;;;;;;5077107;28;19951;-44
2022/05/27 11:53:32;;;;;;;;;;;;;;;;;;5077950;28;19915;-44
2022/05/27 11:56:00;;;;;;;;;;;;;;;;;;5097351;28;19912;-44
2022/05/27 11:58:25;;;;;;;;;;;;;;;;;;5097015;28;19927;-44
2022/05/27 12:00:50;;;;;;;;;;;;;;;;;;5097246;28;20003;-44
2022/05/27 12:03:18;;;;;;;;;;;;;;;;;;5096887;28;19991;-44
2022/05/27 12:05:43;;;;;;;;;;;;;;;;;;5096608;28;20421;-44
2022/05/27 12:08:08;;;;;;;;;;;;;;;;;;5096744;28;19915;-43
2022/05/27 12:10:35;;;;;;;;;;;;;;;;;;5097130;28;19912;-44
2022/05/27 12:13:00;;;;;;;;;;;;;;;;;;5096774;28;19935;-44
2022/05/27 12:15:25;;;;;;;;;;;;;;;;;;5096718;28;19909;-43
2022/05/27 12:17:51;;;;;;;;;;;;;;;;;;5087467;28;19912;-44
2022/05/27 12:20:19;;;;;;;;;;;;;;;;;;5076199;28;20409;-44
2022/05/27 12:22:45;;;;;;;;;;;;;;;;;;5076251;28;19975;-44
2022/05/27 12:25:10;;;;;;;;;;;;;;;;;;5075719;28;19912;-43
2022/05/27 12:27:36;;;;;;;;;;;;;;;;;;5075822;28;19920;-44
2022/05/27 12:30:03;;;;;;;;;;;;;;;;;;5076094;28;19963;-44
2022/05/27 12:32:28;;;;;;;;;;;;;;;;;;5071924;28;20005;-44
2022/05/27 12:34:55;;;;;;;;;;;;;;;;;;5076110;28;19955;-43
2022/05/27 12:37:22;;;;;;;;;;;;;;;;;;5076230;28;19909;-45
2022/05/27 12:39:51;;;;;;;;;;;;;;;;;;5074565;28;19999;-43
2022/05/27 12:42:16;;;;;;;;;;;;;;;;;;5076200;28;19908;-44
2022/05/27 12:44:41;;;;;;;;;;;;;;;;;;5075976;28;19909;-44
2022/05/27 12:47:09;;;;;;;;;;;;;;;;;;5075956;28;19951;-44
2022/05/27 12:49:35;;;;;;;;;;;;;;;;;;5075962;28;19908;-43
2022/05/27 12:52:04;;;;;;;;;;;;;;;;;;5076010;28;20270;-43
2022/05/27 12:54:31;;;;;;;;;;;;;;;;;;5075090;28;19916;-44
2022/05/27 13:02:24;;;;;;;;;;;;;;;;;;5075715;28;19954;-43
2022/05/27 13:04:52;;;;;;;;;;;;;;;;;;5075551;28;19912;-44
2022/05/27 13:07:17;;;;;;;;;;;;;;;;;;5075512;28;19908;-43
2022/05/27 13:09:49;;;;;;;;;;;;;;;;;;5075497;28;20061;-43
2022/05/27 13:12:14;;;;;;;;;;;;;;;;;;5075336;28;20367;-43
2022/05/27 13:14:40;;;;;;;;;;;;;;;;;;5075360;28;19998;-44
2022/05/27 13:17:06;;;;;;;;;;;;;;;;;;5075458;28;19908;-44
2022/05/27 13:19:33;;;;;;;;;;;;;;;;;;5075436;28;20043;-44
2022/05/27 13:21:58;;;;;;;;;;;;;;;;;;5075296;28;19909;-43
2022/05/27 13:24:24;;;;;;;;;;;;;;;;;;5075070;28;19919;-43
2022/05/27 13:26:51;;;;;;;;;;;;;;;;;;5075384;28;20359;-43
2022/05/27 13:29:16;;;;;;;;;;;;;;;;;;5082547;22;20291;-43
2022/05/27 13:31:42;;;;;;;;;;;;;;;;;;5074840;28;19913;-43
2022/05/27 13:34:14;;;;;;;;;;;;;;;;;;5066776;28;20408;-43
2022/05/27 13:36:41;;;;;;;;;;;;;;;;;;5074891;28;20367;-43
2022/05/27 13:39:10;;;;;;;;;;;;;;;;;;5073592;28;20359;-43
2022/05/27 13:41:36;;;;;;;;;;;;;;;;;;5074957;28;19992;-43
2022/05/27 13:44:04;;;;;;;;;;;;;;;;;;5075052;28;19947;-43
2022/05/27 13:46:29;;;;;;;;;;;;;;;;;;5074978;28;19962;-43
2022/05/27 13:48:54;;;;;;;;;;;;;;;;;;5074893;28;19909;-43
2022/05/27 13:51:20;;;;;;;;;;;;;;;;;;5074909;28;20011;-44
2022/05/27 13:53:45;;;;;;;;;;;;;;;;;;5074680;28;19995;-43
2022/05/27 13:56:12;;;;;;;;;;;;;;;;;;5074928;28;19908;-43
2022/05/27 13:58:37;;;;;;;;;;;;;;;;;;5074797;28;19904;-43
2022/05/27 14:01:02;;;;;;;;;;;;;;;;;;5074914;28;19919;-43
2022/05/27 14:03:30;;;;;;;;;;;;;;;;;;5074657;28;19908;-43
2022/05/27 14:05:55;;;;;;;;;;;;;;;;;;5073788;28;19919;-44
2022/05/27 14:08:20;;;;;;;;;;;;;;;;;;5074882;28;19908;-43
2022/05/27 14:10:46;;;;;;;;;;;;;;;;;;5074641;28;19913;-44
2022/05/27 14:13:11;;;;;;;;;;;;;;;;;;5074435;28;19908;-44
2022/05/27 14:15:39;;;;;;;;;;;;;;;;;;5074248;28;20386;-44
2022/05/27 14:18:08;;;;;;;;;;;;;;;;;;5074235;28;19948;-44
2022/05/27 14:22:39;;;;;;;;;;;;;;;;;;5074611;28;19908;-43
2022/05/27 14:23:18;;;;;;;;;;;;;;;;;;5074041;28;19909;-44
2022/05/27 14:25:44;;;;;;;;;;;;;;;;;;5073877;28;20371;-43
2022/05/27 14:28:11;;;;;;;;;;;;;;;;;;5074152;28;19924;-42
2022/05/27 14:30:39;;;;;;;;;;;;;;;;;;5074112;28;19934;-43
2022/05/27 14:33:06;;;;;;;;;;;;;;;;;;5074094;28;19951;-43
2022/05/27 14:35:32;;;;;;;;;;;;;;;;;;5074256;28;20003;-44
2022/05/27 14:37:57;;;;;;;;;;;;;;;;;;5074441;28;19951;-43
2022/05/27 14:40:24;;;;;;;;;;;;;;;;;;5074173;28;19912;-43
2022/05/27 14:42:49;;;;;;;;;;;;;;;;;;5074301;28;20420;-43
2022/05/27 14:45:16;;;;;;;;;;;;;;;;;;5074163;28;20017;-43
2022/05/27 14:47:42;;;;;;;;;;;;;;;;;;5073884;28;20378;-43
2022/05/27 14:50:07;;;;;;;;;;;;;;;;;;5074059;28;20016;-43
2022/05/27 14:52:34;;;;;;;;;;;;;;;;;;5074008;28;20417;-43
2022/05/27 14:55:02;;;;;;;;;;;;;;;;;;5074162;28;19940;-43
2022/05/27 14:57:29;;;;;;;;;;;;;;;;;;5074530;28;19959;-44
2022/05/27 14:59:57;;;;;;;;;;;;;;;;;;5074879;28;19995;-45
2022/05/27 15:02:24;;;;;;;;;;;;;;;;;;5074344;28;19917;-43
2022/05/27 15:04:49;;;;;;;;;;;;;;;;;;5074493;28;19908;-43
2022/05/27 15:07:14;;;;;;;;;;;;;;;;;;5074630;28;19957;-43
2022/05/27 15:09:39;;;;;;;;;;;;;;;;;;5074648;28;20351;-43
2022/05/27 15:12:04;;;;;;;;;;;;;;;;;;5074228;28;20001;-43
2022/05/27 15:14:29;;;;;;;;;;;;;;;;;;5074111;28;19947;-42
2022/05/27 15:16:55;;;;;;;;;;;;;;;;;;5075640;28;19950;-43
2022/05/27 15:19:21;;;;;;;;;;;;;;;;;;5077751;28;19948;-43
2022/05/27 15:21:49;;;;;;;;;;;;;;;;;;5077946;28;19912;-42
2022/05/27 15:24:17;;;;;;;;;;;;;;;;;;5077326;28;20019;-43
2022/05/27 15:34:58;;;;;;;;;;;;;;;;;;5077610;28;19915;-44
2022/05/27 15:37:23;;;;;;;;;;;;;;;;;;5076227;28;19996;-43
2022/05/27 15:39:48;;;;;;;;;;;;;;;;;;5077117;28;19948;-43
2022/05/27 15:42:14;;;;;;;;;;;;;;;;;;5077027;28;19912;-43
2022/05/27 15:44:40;;;;;;;;;;;;;;;;;;5057826;28;19995;-42
2022/05/27 15:47:08;;;;;;;;;;;;;;;;;;5057655;28;19959;-44
2022/05/27 15:49:36;;;;;;;;;;;;;;;;;;5057218;28;19916;-43
2022/05/27 15:52:02;;;;;;;;;;;;;;;;;;5058546;28;19916;-43
2022/05/27 15:54:30;;;;;;;;;;;;;;;;;;5057728;28;20319;-43
2022/05/27 15:56:55;;;;;;;;;;;;;;;;;;5057034;28;19940;-43
2022/05/27 15:59:20;;;;;;;;;;;;;;;;;;5057171;28;19945;-44
2022/05/27 16:01:45;;;;;;;;;;;;;;;;;;5056869;28;19909;-43
2022/05/27 16:04:10;;;;;;;;;;;;;;;;;;5056762;28;20039;-43
2022/05/27 16:06:35;;;;;;;;;;;;;;;;;;5056980;28;19992;-44
2022/05/27 16:09:00;;;;;;;;;;;;;;;;;;5057091;28;19967;-44
2022/05/27 16:11:27;;;;;;;;;;;;;;;;;;5075261;28;19962;-43
2022/05/27 16:13:52;;;;;;;;;;;;;;;;;;5077157;28;19961;-43
2022/05/27 16:19:01;;;;;;;;;;;;;;;;;;5076958;28;20006;-43
2022/05/27 16:21:26;;;;;;;;;;;;;;;;;;5076630;28;19909;-43
2022/05/27 16:23:52;;;;;;;;;;;;;;;;;;5076611;28;19928;-44
2022/05/27 16:26:17;;;;;;;;;;;;;;;;;;5076306;28;20478;-43
2022/05/27 16:28:43;;;;;;;;;;;;;;;;;;5076236;28;19982;-43
2022/05/27 16:31:11;;;;;;;;;;;;;;;;;;5076573;28;20405;-44
2022/05/27 16:33:37;;;;;;;;;;;;;;;;;;5076944;28;19913;-43
2022/05/27 16:36:03;;;;;;;;;;;;;;;;;;5076855;28;19938;-43
2022/05/27 16:38:28;;;;;;;;;;;;;;;;;;5076660;28;19908;-42
2022/05/27 16:40:56;;;;;;;;;;;;;;;;;;5076718;28;19943;-43
2022/05/27 16:43:22;;;;;;;;;;;;;;;;;;5076624;28;19963;-43
2022/05/27 16:45:47;;;;;;;;;;;;;;;;;;5076519;28;19909;-43
2022/05/27 16:48:13;;;;;;;;;;;;;;;;;;5076469;28;19909;-43
2022/05/27 16:50:42;;;;;;;;;;;;;;;;;;5076579;28;20382;-44
2022/05/27 16:53:10;;;;;;;;;;;;;;;;;;5076245;28;20379;-43
2022/05/27 16:55:38;;;;;;;;;;;;;;;;;;5076369;28;19945;-43
2022/05/27 16:58:08;;;;;;;;;;;;;;;;;;5075734;28;20260;-43
2022/05/27 17:00:36;;;;;;;;;;;;;;;;;;5075091;28;19913;-44
2022/05/27 17:03:02;;;;;;;;;;;;;;;;;;5076511;28;19916;-43
2022/05/27 17:05:29;;;;;;;;;;;;;;;;;;5076075;28;19915;-43
2022/05/27 17:07:54;;;;;;;;;;;;;;;;;;5075900;28;19912;-42
2022/05/27 17:10:19;;;;;;;;;;;;;;;;;;5076260;28;20266;-44
2022/05/27 17:12:47;;;;;;;;;;;;;;;;;;5076082;28;19913;-43
2022/05/27 17:15:12;;;;;;;;;;;;;;;;;;5075871;28;19931;-42
2022/05/27 17:17:38;;;;;;;;;;;;;;;;;;5075401;28;20342;-43
2022/05/27 17:20:03;;;;;;;;;;;;;;;;;;5075067;28;20283;-42
2022/05/27 17:22:30;;;;;;;;;;;;;;;;;;5075590;28;19909;-42
2022/05/27 17:24:57;;;;;;;;;;;;;;;;;;5075318;28;19959;-43